createdAt,value
2023-03-20T00:02:23.881Z,97987.50
2023-03-20T00:04:51.618Z,97990.09
2023-03-20T00:07:19.239Z,97989.09
2023-03-20T00:09:47.876Z,97993.56
2023-03-20T00:12:22.326Z,97993.06
2023-03-20T00:14:49.695Z,97994.09
2023-03-20T00:17:21.140Z,97994.84
2023-03-20T00:19:48.959Z,97989.09
2023-03-20T00:22:16.669Z,97995.75
2023-03-20T00:24:43.908Z,97992.13
2023-03-20T00:27:15.827Z,97996.00
2023-03-20T00:29:44.153Z,97990.25
2023-03-20T00:32:15.582Z,97990.25
2023-03-20T00:34:43.300Z,97992.97
2023-03-20T00:37:12.102Z,97985.66
2023-03-20T00:39:39.892Z,97982.31
2023-03-20T00:42:22.739Z,97987.91
2023-03-20T00:44:59.634Z,97990.03
2023-03-20T00:47:30.296Z,97984.19
2023-03-20T00:49:58.157Z,97984.66
2023-03-20T00:52:26.531Z,97983.16
2023-03-20T00:54:54.001Z,97980.84
2023-03-20T00:57:37.162Z,97976.69
2023-03-20T01:00:08.772Z,97974.88
2023-03-20T01:02:36.465Z,97976.03
2023-03-20T01:05:05.726Z,97975.16
2023-03-20T01:07:33.969Z,97964.94
2023-03-20T01:10:01.349Z,97961.59
2023-03-20T01:12:29.145Z,97963.03
2023-03-20T01:14:59.035Z,97967.19
2023-03-20T01:17:28.396Z,97968.25
2023-03-20T01:19:56.015Z,97959.81
2023-03-20T01:22:23.664Z,97967.03
2023-03-20T01:24:51.050Z,97961.13
2023-03-20T01:27:21.065Z,97963.41
2023-03-20T01:29:48.548Z,97959.75
2023-03-20T01:32:19.434Z,97968.25
2023-03-20T01:34:47.649Z,97972.81
2023-03-20T01:37:24.818Z,97963.19
2023-03-20T01:39:52.446Z,97965.09
2023-03-20T01:42:20.799Z,97972.22
2023-03-20T01:44:48.650Z,97962.38
2023-03-20T01:47:23.956Z,97974.31
2023-03-20T01:50:31.554Z,97968.16
2023-03-20T01:53:18.046Z,97977.75
2023-03-20T01:55:48.027Z,97979.94
2023-03-20T01:58:23.598Z,97972.94
2023-03-20T02:00:50.927Z,97978.59
2023-03-20T02:03:20.260Z,97976.91
2023-03-20T02:05:48.667Z,97972.44
2023-03-20T02:08:21.530Z,97987.50
2023-03-20T02:10:50.365Z,97982.28
2023-03-20T02:13:18.445Z,97983.88
2023-03-20T02:15:55.498Z,97985.13
2023-03-20T02:18:23.528Z,97986.63
2023-03-20T02:21:31.336Z,97988.22
2023-03-20T02:24:52.616Z,97979.44
2023-03-20T02:28:07.232Z,97979.25
2023-03-20T02:30:56.639Z,97981.56
2023-03-20T02:34:13.335Z,97975.50
2023-03-20T02:37:05.400Z,97982.03
2023-03-20T02:40:11.136Z,97979.84
2023-03-20T02:43:04.299Z,97969.63
2023-03-20T02:45:56.662Z,97979.44
2023-03-20T02:48:59.221Z,97979.63
2023-03-20T02:52:19.802Z,97976.91
2023-03-20T02:54:56.058Z,97977.09
2023-03-20T02:57:41.655Z,97970.81
2023-03-20T03:00:37.904Z,97968.44
2023-03-20T03:03:24.042Z,97961.63
2023-03-20T03:06:10.908Z,97959.97
2023-03-20T03:08:50.136Z,97971.94
2023-03-20T03:11:17.730Z,97959.00
2023-03-20T03:13:55.684Z,97969.75
2023-03-20T03:16:30.416Z,97976.03
2023-03-20T03:19:18.288Z,97980.31
2023-03-20T03:21:48.210Z,97976.16
2023-03-20T03:24:41.290Z,97968.59
2023-03-20T03:27:34.559Z,97977.00
2023-03-20T03:30:16.177Z,97970.22
2023-03-20T03:33:17.719Z,97973.97
2023-03-20T03:35:47.496Z,97978.75
2023-03-20T03:38:27.206Z,97978.66
2023-03-20T03:41:14.804Z,97972.19
2023-03-20T03:43:52.824Z,97968.44
2023-03-20T03:46:55.005Z,97963.78
2023-03-20T03:49:49.756Z,97968.03
2023-03-20T03:52:23.611Z,97967.97
2023-03-20T03:55:05.030Z,97959.19
2023-03-20T03:57:40.502Z,97956.81
2023-03-20T04:00:25.846Z,97972.69
2023-03-20T04:02:58.058Z,97970.38
2023-03-20T04:05:31.917Z,97970.38
2023-03-20T04:08:02.013Z,97967.56
2023-03-20T04:10:29.595Z,97967.56
2023-03-20T04:12:56.882Z,97962.56
2023-03-20T04:15:24.548Z,97970.69
2023-03-20T04:17:51.788Z,97972.13
2023-03-20T04:20:19.688Z,97960.44
2023-03-20T04:22:47.099Z,97969.44
2023-03-20T04:25:26.111Z,97968.09
2023-03-20T04:27:53.948Z,97969.69
2023-03-20T04:30:21.634Z,97970.63
2023-03-20T04:32:48.883Z,97968.84
2023-03-20T04:35:16.642Z,97973.16
2023-03-20T04:37:44.015Z,97964.38
2023-03-20T04:40:13.049Z,97969.59
2023-03-20T04:42:40.529Z,97961.53
2023-03-20T04:45:09.719Z,97970.44
2023-03-20T04:47:37.107Z,97974.06
2023-03-20T04:50:05.958Z,97972.50
2023-03-20T04:52:33.300Z,97971.66
2023-03-20T04:55:00.877Z,97974.38
2023-03-20T04:57:28.778Z,97977.81
2023-03-20T04:59:56.379Z,97974.81
2023-03-20T05:02:23.707Z,97980.34
2023-03-20T05:04:51.261Z,97990.78
2023-03-20T05:07:18.530Z,97986.59
2023-03-20T05:09:46.077Z,97993.91
2023-03-20T05:12:13.982Z,97996.91
2023-03-20T05:14:41.555Z,97986.97
2023-03-20T05:17:08.908Z,97990.25
2023-03-20T05:19:36.863Z,97993.47
2023-03-20T05:22:04.622Z,97986.38
2023-03-20T05:24:32.268Z,97992.03
2023-03-20T05:26:59.576Z,97988.16
2023-03-20T05:29:27.327Z,97981.38
2023-03-20T05:31:55.558Z,97992.09
2023-03-20T05:34:24.814Z,97993.44
2023-03-20T05:36:52.103Z,97999.66
2023-03-20T05:39:19.920Z,98003.09
2023-03-20T05:41:47.239Z,97997.50
2023-03-20T05:44:14.936Z,97993.47
2023-03-20T05:46:42.264Z,97998.88
2023-03-20T05:49:09.808Z,97995.44
2023-03-20T05:51:37.402Z,97993.16
2023-03-20T05:54:05.269Z,97996.41
2023-03-20T05:56:32.655Z,97997.25
2023-03-20T05:59:00.289Z,97997.38
2023-03-20T06:01:27.559Z,98002.03
2023-03-20T06:03:55.458Z,97998.91
2023-03-20T06:06:22.840Z,97994.63
2023-03-20T06:08:50.372Z,97999.72
2023-03-20T06:11:18.040Z,97997.84
2023-03-20T06:13:45.575Z,97998.22
2023-03-20T06:16:12.894Z,98014.84
2023-03-20T06:18:40.514Z,98008.78
2023-03-20T06:21:08.034Z,98014.59
2023-03-20T06:23:36.397Z,98020.31
2023-03-20T06:26:03.846Z,98020.53
2023-03-20T06:28:31.850Z,98025.19
2023-03-20T06:30:59.248Z,98034.81
2023-03-20T06:33:27.182Z,98027.81
2023-03-20T06:35:54.785Z,98038.84
2023-03-20T06:38:22.549Z,98037.91
2023-03-20T06:40:49.811Z,98035.28
2023-03-20T06:43:17.551Z,98042.25
2023-03-20T06:45:44.819Z,98042.38
2023-03-20T06:48:12.551Z,98042.25
2023-03-20T06:50:39.944Z,98047.97
2023-03-20T06:53:07.480Z,98048.66
2023-03-20T06:55:35.044Z,98044.25
2023-03-20T06:58:02.748Z,98051.50
2023-03-20T07:00:30.081Z,98039.56
2023-03-20T07:02:57.616Z,98041.38
2023-03-20T07:05:24.877Z,98048.56
2023-03-20T07:07:52.992Z,98055.09
2023-03-20T07:10:20.383Z,98054.75
2023-03-20T07:12:48.470Z,98054.34
2023-03-20T07:15:15.884Z,98052.28
2023-03-20T07:17:43.848Z,98058.44
2023-03-20T07:20:12.024Z,98059.34
2023-03-20T07:22:41.771Z,98064.63
2023-03-20T07:25:11.191Z,98069.66
2023-03-20T07:27:38.863Z,98063.59
2023-03-20T07:30:09.033Z,98064.28
2023-03-20T07:32:37.796Z,98082.97
2023-03-20T07:35:06.402Z,98066.31
2023-03-20T07:37:33.938Z,98069.13
2023-03-20T07:40:01.456Z,98068.41
2023-03-20T07:42:28.966Z,98068.75
2023-03-20T07:44:56.315Z,98078.69
2023-03-20T07:47:24.565Z,98087.16
2023-03-20T07:49:52.369Z,98087.31
2023-03-20T07:52:20.001Z,98089.78
2023-03-20T07:54:47.366Z,98082.56
2023-03-20T07:57:14.880Z,98082.59
2023-03-20T07:59:42.239Z,98083.19
2023-03-20T08:02:16.393Z,98077.63
2023-03-20T08:04:45.438Z,98078.56
2023-03-20T08:07:13.262Z,98078.34
2023-03-20T08:09:41.073Z,98082.50
2023-03-20T08:12:08.904Z,98080.16
2023-03-20T08:14:38.723Z,98080.34
2023-03-20T08:17:14.936Z,98072.28
2023-03-20T08:19:43.453Z,98071.91
2023-03-20T08:22:11.101Z,98075.81
2023-03-20T08:24:38.395Z,98081.56
2023-03-20T08:27:06.183Z,98076.47
2023-03-20T08:29:33.721Z,98081.06
2023-03-20T08:32:01.393Z,98082.97
2023-03-20T08:34:28.686Z,98081.50
2023-03-20T08:36:56.296Z,98079.16
2023-03-20T08:39:23.595Z,98080.75
2023-03-20T08:41:51.213Z,98078.97
2023-03-20T08:44:18.511Z,98078.75
2023-03-20T08:46:46.736Z,98089.03
2023-03-20T08:49:14.657Z,98082.25
2023-03-20T08:51:43.193Z,98080.00
2023-03-20T08:54:10.534Z,98083.13
2023-03-20T08:56:38.127Z,98076.72
2023-03-20T08:59:05.538Z,98082.91
2023-03-20T09:01:48.255Z,98083.34
2023-03-20T09:04:17.241Z,98086.34
2023-03-20T09:06:45.107Z,98083.63
2023-03-20T09:09:15.899Z,98081.03
2023-03-20T09:11:43.591Z,98088.63
2023-03-20T09:14:11.409Z,98100.75
2023-03-20T09:16:39.459Z,98097.31
2023-03-20T09:19:06.715Z,98089.03
2023-03-20T09:21:34.389Z,98087.56
2023-03-20T09:24:01.659Z,98087.03
2023-03-20T09:26:29.282Z,98084.66
2023-03-20T09:28:56.542Z,98085.34
2023-03-20T09:31:24.325Z,98089.63
2023-03-20T09:33:51.824Z,98092.41
2023-03-20T09:36:19.446Z,98085.81
2023-03-20T09:38:46.809Z,98082.03
2023-03-20T09:41:22.713Z,98084.66
2023-03-20T09:44:21.202Z,98091.94
2023-03-20T09:47:21.189Z,98085.97
2023-03-20T09:50:32.923Z,98093.94
2023-03-20T09:53:15.907Z,98095.69
2023-03-20T09:55:44.989Z,98091.41
2023-03-20T09:58:32.408Z,98092.44
2023-03-20T10:01:02.911Z,98090.66
2023-03-20T10:03:43.536Z,98092.50
2023-03-20T10:06:17.114Z,98092.56
2023-03-20T10:08:46.385Z,98092.81
2023-03-20T10:11:49.221Z,98084.75
2023-03-20T10:14:40.883Z,98086.25
2023-03-20T10:17:18.081Z,98083.31
2023-03-20T10:19:59.080Z,98080.44
2023-03-20T10:22:36.234Z,98081.38
2023-03-20T10:25:26.472Z,98077.66
2023-03-20T10:28:06.232Z,98078.19
2023-03-20T10:30:56.804Z,98080.28
2023-03-20T10:33:55.062Z,98084.66
2023-03-20T10:37:03.314Z,98087.00
2023-03-20T10:40:10.103Z,98092.44
2023-03-20T10:42:47.154Z,98076.53
2023-03-20T10:45:40.623Z,98072.78
2023-03-20T10:48:39.330Z,98072.28
2023-03-20T10:51:15.178Z,98065.09
2023-03-20T10:54:10.620Z,98070.72
2023-03-20T10:56:47.044Z,98072.50
2023-03-20T10:59:37.031Z,98069.44
2023-03-20T11:02:14.889Z,98070.19
2023-03-20T11:04:43.155Z,98072.16
2023-03-20T11:07:10.289Z,98067.94
2023-03-20T11:09:38.126Z,98072.44
2023-03-20T11:12:06.019Z,98068.63
2023-03-20T11:14:39.916Z,98068.03
2023-03-20T11:17:07.492Z,98065.06
2023-03-20T11:19:38.850Z,98067.66
2023-03-20T11:22:19.283Z,98065.91
2023-03-20T11:24:54.067Z,98060.56
2023-03-20T11:27:33.515Z,98053.75
2023-03-20T11:30:07.661Z,98062.09
2023-03-20T11:32:48.277Z,98072.19
2023-03-20T11:35:27.212Z,98070.09
2023-03-20T11:38:08.538Z,98060.31
2023-03-20T11:40:37.014Z,98059.03
2023-03-20T11:43:20.769Z,98053.94
2023-03-20T11:45:59.538Z,98050.97
2023-03-20T11:48:39.044Z,98043.75
2023-03-20T11:51:18.890Z,98040.63
2023-03-20T11:53:49.115Z,98041.09
2023-03-20T11:56:29.033Z,98027.00
2023-03-20T11:59:14.099Z,98028.28
2023-03-20T12:01:51.559Z,98027.97
2023-03-20T12:04:45.759Z,98030.06
2023-03-20T12:07:27.488Z,98026.25
2023-03-20T12:10:12.984Z,98025.63
2023-03-20T12:12:59.491Z,98019.47
2023-03-20T12:15:34.386Z,98013.53
2023-03-20T12:18:26.058Z,98020.19
2023-03-20T12:21:24.422Z,98012.09
2023-03-20T12:23:57.517Z,98004.78
2023-03-20T12:26:48.881Z,98010.41
2023-03-20T12:29:48.540Z,98011.81
2023-03-20T12:32:44.417Z,98021.47
2023-03-20T12:35:24.306Z,98013.34
2023-03-20T12:37:52.677Z,98017.72
2023-03-20T12:40:33.727Z,98011.78
2023-03-20T12:43:14.536Z,98022.19
2023-03-20T12:45:50.884Z,98009.38
2023-03-20T12:48:52.164Z,98013.81
2023-03-20T12:51:50.448Z,98014.59
2023-03-20T12:54:33.994Z,98014.06
2023-03-20T12:57:27.605Z,98010.63
2023-03-20T13:00:06.784Z,98017.22
2023-03-20T13:02:54.992Z,98006.78
2023-03-20T13:05:37.931Z,98013.31
2023-03-20T13:08:38.620Z,98009.53
2023-03-20T13:11:36.458Z,98005.63
2023-03-20T13:14:36.370Z,98008.13
2023-03-20T13:17:06.527Z,98001.19
2023-03-20T13:19:58.503Z,98016.81
2023-03-20T13:23:12.681Z,98016.13
2023-03-20T13:26:19.761Z,98002.72
2023-03-20T13:29:00.688Z,97996.75
2023-03-20T13:31:53.947Z,97997.25
2023-03-20T13:34:54.370Z,97991.50
2023-03-20T13:37:44.449Z,97996.94
2023-03-20T13:40:20.831Z,97992.19
2023-03-20T13:43:06.400Z,97992.75
2023-03-20T13:45:41.434Z,97987.47
2023-03-20T13:48:29.914Z,97993.13
2023-03-20T13:51:44.722Z,97982.94
2023-03-20T13:54:30.176Z,97987.00
2023-03-20T13:57:27.721Z,97991.25
2023-03-20T14:00:20.905Z,97992.47
2023-03-20T14:03:14.595Z,97993.94
2023-03-20T14:05:44.321Z,97991.44
2023-03-20T14:08:38.341Z,97990.16
2023-03-20T14:11:20.933Z,97987.63
2023-03-20T14:13:54.898Z,97990.25
2023-03-20T14:16:23.135Z,97996.75
2023-03-20T14:19:11.099Z,97989.41
2023-03-20T14:21:46.913Z,97988.78
2023-03-20T14:24:18.750Z,97989.22
2023-03-20T14:27:01.217Z,97989.63
2023-03-20T14:29:38.754Z,97992.69
2023-03-20T14:32:15.811Z,97997.19
2023-03-20T14:35:13.991Z,97990.66
2023-03-20T14:38:12.074Z,98000.41
2023-03-20T14:41:09.819Z,97996.34
2023-03-20T14:44:16.957Z,97994.84
2023-03-20T14:46:47.134Z,97989.59
2023-03-20T14:50:15.473Z,97999.03
2023-03-20T14:53:09.617Z,97994.59
2023-03-20T14:55:55.498Z,97998.06
2023-03-20T14:58:46.376Z,97995.16
2023-03-20T15:01:21.771Z,97993.63
2023-03-20T15:03:56.728Z,97981.69
2023-03-20T15:06:28.274Z,97981.81
2023-03-20T15:09:06.881Z,97975.69
2023-03-20T15:11:35.964Z,97973.22
2023-03-20T15:14:08.758Z,97972.09
2023-03-20T15:16:38.034Z,97975.44
2023-03-20T15:19:17.511Z,97972.22
2023-03-20T15:21:48.218Z,97961.84
2023-03-20T15:24:30.092Z,97969.44
2023-03-20T15:27:02.253Z,97967.91
2023-03-20T15:29:33.102Z,97967.25
2023-03-20T15:32:14.108Z,97973.78
2023-03-20T15:34:44.257Z,97972.09
2023-03-20T15:37:20.963Z,97961.03
2023-03-20T15:39:55.533Z,97961.84
2023-03-20T15:42:26.758Z,97967.25
2023-03-20T15:44:55.915Z,97968.53
2023-03-20T15:47:26.536Z,97965.47
2023-03-20T15:50:00.882Z,97968.53
2023-03-20T15:52:53.318Z,97964.94
2023-03-20T15:55:24.796Z,97962.03
2023-03-20T15:57:57.427Z,97970.88
2023-03-20T16:00:39.164Z,97972.41
2023-03-20T16:03:14.301Z,97968.69
2023-03-20T16:05:45.535Z,97971.03
2023-03-20T16:08:22.359Z,97962.75
2023-03-20T16:10:49.819Z,97970.22
2023-03-20T16:13:18.303Z,97971.97
2023-03-20T16:15:46.528Z,97976.28
2023-03-20T16:18:18.312Z,97973.25
2023-03-20T16:21:25.747Z,97968.22
2023-03-20T16:23:57.813Z,97973.91
2023-03-20T16:26:27.487Z,97966.16
2023-03-20T16:29:00.128Z,97966.03
2023-03-20T16:31:34.599Z,97971.69
2023-03-20T16:34:18.196Z,97973.06
2023-03-20T16:36:58.967Z,97974.41
2023-03-20T16:39:30.837Z,97979.50
2023-03-20T16:42:15.905Z,97978.06
2023-03-20T16:44:43.829Z,97981.91
2023-03-20T16:47:21.737Z,97987.41
2023-03-20T16:50:20.835Z,97986.34
2023-03-20T16:52:58.636Z,97991.28
2023-03-20T16:55:41.686Z,97990.00
2023-03-20T16:58:08.951Z,97995.22
2023-03-20T17:00:58.481Z,97995.16
2023-03-20T17:03:57.445Z,97994.00
2023-03-20T17:06:48.644Z,97985.69
2023-03-20T17:09:27.501Z,97992.22
2023-03-20T17:12:05.773Z,97989.38
2023-03-20T17:14:34.056Z,97987.66
2023-03-20T17:17:01.837Z,97985.84
2023-03-20T17:19:32.704Z,97995.66
2023-03-20T17:22:03.750Z,97993.25
2023-03-20T17:24:31.058Z,97984.69
2023-03-20T17:26:58.792Z,97988.41
2023-03-20T17:29:26.189Z,97993.78
2023-03-20T17:31:53.865Z,97990.81
2023-03-20T17:34:21.434Z,97988.31
2023-03-20T17:36:49.246Z,97996.06
2023-03-20T17:39:21.682Z,97997.91
2023-03-20T17:41:49.423Z,97995.16
2023-03-20T17:44:16.818Z,97991.69
2023-03-20T17:46:57.258Z,97995.97
2023-03-20T17:49:27.656Z,97997.06
2023-03-20T17:51:56.418Z,98008.13
2023-03-20T17:54:23.767Z,98007.63
2023-03-20T17:56:51.388Z,98004.63
2023-03-20T17:59:18.906Z,98008.28
2023-03-20T18:01:46.682Z,98005.19
2023-03-20T18:04:14.004Z,98013.63
2023-03-20T18:06:41.557Z,98012.16
2023-03-20T18:09:14.797Z,98008.22
2023-03-20T18:11:42.482Z,98011.53
2023-03-20T18:14:12.441Z,98009.59
2023-03-20T18:16:40.144Z,98020.09
2023-03-20T18:19:28.668Z,98017.88
2023-03-20T18:21:57.814Z,98016.91
2023-03-20T18:24:26.067Z,98025.63
2023-03-20T18:26:54.911Z,98023.00
2023-03-20T18:29:22.949Z,98016.38
2023-03-20T18:31:50.963Z,98020.50
2023-03-20T18:34:18.542Z,98020.53
2023-03-20T18:36:47.034Z,98020.06
2023-03-20T18:39:24.180Z,98020.91
2023-03-20T18:41:52.498Z,98024.63
2023-03-20T18:44:19.866Z,98024.41
2023-03-20T18:46:47.521Z,98024.75
2023-03-20T18:49:17.544Z,98021.16
2023-03-20T18:51:46.188Z,98022.25
2023-03-20T18:54:13.742Z,98024.03
2023-03-20T18:56:41.520Z,98022.25
2023-03-20T18:59:13.261Z,98019.41
2023-03-20T19:01:41.229Z,98020.13
2023-03-20T19:04:09.613Z,98017.13
2023-03-20T19:06:37.303Z,98012.38
2023-03-20T19:09:05.599Z,98023.53
2023-03-20T19:11:33.227Z,98018.91
2023-03-20T19:14:00.610Z,98005.72
2023-03-20T19:16:35.366Z,98018.19
2023-03-20T19:19:06.916Z,98011.50
2023-03-20T19:21:35.468Z,98016.06
2023-03-20T19:24:07.732Z,98017.13
2023-03-20T19:26:37.568Z,98010.22
2023-03-20T19:29:09.569Z,98010.69
2023-03-20T19:31:37.703Z,98019.13
2023-03-20T19:34:06.096Z,98007.69
2023-03-20T19:36:37.586Z,98011.19
2023-03-20T19:39:08.372Z,97998.69
2023-03-20T19:41:36.121Z,98000.22
2023-03-20T19:44:03.449Z,98001.75
2023-03-20T19:46:40.637Z,98011.06
2023-03-20T19:49:22.349Z,98007.81
2023-03-20T19:51:55.759Z,98017.13
2023-03-20T19:54:23.287Z,98011.63
2023-03-20T19:56:50.922Z,98011.75
2023-03-20T19:59:18.357Z,98010.69
2023-03-20T20:01:46.335Z,98001.88
2023-03-20T20:04:14.981Z,98007.13
2023-03-20T20:06:42.635Z,98012.50
2023-03-20T20:09:10.036Z,98008.91
2023-03-20T20:11:37.808Z,98012.13
2023-03-20T20:14:08.478Z,98013.94
2023-03-20T20:16:40.169Z,98014.75
2023-03-20T20:19:08.077Z,98013.81
2023-03-20T20:22:19.448Z,98026.53
2023-03-20T20:24:23.277Z,98027.38
2023-03-20T20:26:56.827Z,98027.50
2023-03-20T20:29:30.974Z,98025.13
2023-03-20T20:32:00.644Z,98030.94
2023-03-20T20:40:06.188Z,98034.25
2023-03-20T20:42:33.961Z,98032.91
2023-03-20T20:45:01.290Z,98038.38
2023-03-20T20:47:28.969Z,98034.19
2023-03-20T20:49:56.737Z,98028.88
2023-03-20T20:52:24.496Z,98027.69
2023-03-20T20:54:51.922Z,98033.88
2023-03-20T20:57:19.545Z,98038.38
2023-03-20T20:59:46.882Z,98033.28
2023-03-20T21:02:15.976Z,98025.38
2023-03-20T21:04:43.930Z,98039.22
2023-03-20T21:07:13.440Z,98032.91
2023-03-20T21:09:41.218Z,98039.97
2023-03-20T21:12:10.785Z,98041.19
2023-03-20T21:14:43.582Z,98042.03
2023-03-20T21:17:11.413Z,98039.97
2023-03-20T21:19:43.321Z,98035.25
2023-03-20T21:22:15.911Z,98036.22
2023-03-20T21:24:43.980Z,98035.13
2023-03-20T21:27:14.513Z,98036.41
2023-03-20T21:29:43.449Z,98032.09
2023-03-20T21:32:16.364Z,98034.00
2023-03-20T21:34:43.964Z,98023.75
2023-03-20T21:38:13.097Z,98021.47
2023-03-20T21:40:08.886Z,98022.28
2023-03-20T21:42:36.974Z,98021.13
2023-03-20T21:46:02.682Z,98018.78
2023-03-20T21:48:33.481Z,98005.63
2023-03-20T21:51:18.090Z,98009.22
2023-03-20T21:57:07.960Z,98017.78
2023-03-20T21:59:40.672Z,98016.50
2023-03-20T22:02:08.387Z,98016.13
2023-03-20T22:08:05.408Z,98021.59
2023-03-20T22:11:18.293Z,98017.31
2023-03-20T22:13:59.758Z,98012.09
2023-03-20T22:16:42.859Z,98012.69
2023-03-20T22:22:05.494Z,98019.38
2023-03-20T22:27:52.782Z,98017.66
2023-03-20T22:33:26.343Z,98013.88
2023-03-20T22:41:59.297Z,98015.34
2023-03-20T22:46:47.275Z,98023.25
2023-03-20T22:49:15.724Z,98022.72
2023-03-20T22:51:57.497Z,98018.56
2023-03-20T22:54:30.654Z,98018.47
2023-03-20T22:56:59.048Z,98020.47
2023-03-20T22:59:26.582Z,98018.09
2023-03-20T23:01:53.877Z,98018.94
2023-03-20T23:04:21.459Z,98015.97
2023-03-20T23:06:48.842Z,98016.59
2023-03-20T23:09:16.452Z,98007.56
2023-03-20T23:11:43.974Z,98007.31
2023-03-20T23:14:20.465Z,98005.19
2023-03-20T23:16:50.935Z,98010.41
2023-03-20T23:19:18.864Z,98008.56
2023-03-20T23:21:46.579Z,98015.25
2023-03-20T23:24:14.122Z,98012.28
2023-03-20T23:26:41.444Z,98006.34
2023-03-20T23:29:09.644Z,98006.97
2023-03-20T23:31:36.954Z,98001.81
2023-03-20T23:34:04.553Z,98007.41
2023-03-20T23:36:39.021Z,98003.13
2023-03-20T23:39:09.513Z,98000.03
2023-03-20T23:44:26.315Z,98001.81
2023-03-20T23:46:54.769Z,97999.66
2023-03-20T23:49:22.433Z,97995.16
2023-03-20T23:51:49.703Z,97993.25
2023-03-20T23:54:17.244Z,97997.19
2023-03-20T23:56:44.603Z,97998.44
2023-03-20T23:59:20.989Z,97999.00
